Time;durP1;ratioP1;P1;durP2;ratioP2;P2;SDS_P1;SDS_P2;PMS_P1;PMS_P2;Temp;Humidity;BMP_temperature;BMP_pressure;BME280_temperature;BME280_humidity;BME280_pressure;Samples;Min_cycle;Max_cycle;Signal;HPM_P1;HPM_P2
2021/08/15 00:01:23;;;;;;;9.13;4.43;;;;;;;18.73;65.35;101531.31;5934727;29;20229;-57
2021/08/15 00:04:44;;;;;;;9.82;5.15;;;;;;;18.57;65.72;101525.66;5929399;29;20625;-53
2021/08/15 00:08:07;;;;;;;10.07;4.53;;;;;;;18.43;66.09;101518.19;5941332;29;20244;-52
2021/08/15 00:11:29;;;;;;;7.60;4.20;;;;;;;18.75;65.48;101518.97;5934599;29;20241;-54
2021/08/15 00:14:50;;;;;;;14.82;5.72;;;;;;;18.63;65.41;101514.91;5943262;29;20248;-56
2021/08/15 00:18:11;;;;;;;12.90;5.05;;;;;;;18.67;65.29;101509.50;5933081;29;20323;-55
2021/08/15 00:21:31;;;;;;;13.30;6.32;;;;;;;18.34;66.07;101489.44;5930662;29;20249;-54
2021/08/15 00:24:54;;;;;;;13.07;5.43;;;;;;;18.43;65.89;101489.16;5927973;29;20328;-55
2021/08/15 00:28:15;;;;;;;10.00;4.80;;;;;;;18.27;67.14;101487.00;5934163;29;20843;-55
2021/08/15 00:31:36;;;;;;;9.30;4.75;;;;;;;18.25;66.96;101480.91;5919213;29;20809;-52
2021/08/15 00:34:58;;;;;;;10.38;4.72;;;;;;;18.60;65.68;101492.13;5917309;29;20718;-55
2021/08/15 00:38:18;;;;;;;10.43;5.93;;;;;;;18.09;67.45;101496.34;5917835;29;20245;-51
2021/08/15 00:41:41;;;;;;;17.25;4.93;;;;;;;18.24;67.43;101478.31;5920457;29;20237;-55
2021/08/15 00:45:02;;;;;;;11.68;5.25;;;;;;;18.43;66.73;101473.34;5915081;29;20258;-52
2021/08/15 00:48:23;;;;;;;8.98;5.53;;;;;;;18.30;67.51;101483.44;5917802;29;20240;-52
2021/08/15 00:51:44;;;;;;;11.98;5.72;;;;;;;17.77;69.28;101476.16;5916541;29;20860;-55
2021/08/15 00:55:09;;;;;;;14.50;6.22;;;;;;;18.03;68.77;101475.44;5909607;29;20304;-56
2021/08/15 00:58:34;;;;;;;13.75;5.47;;;;;;;18.61;66.39;101477.16;5920121;29;20254;-52
2021/08/15 01:01:55;;;;;;;12.63;5.97;;;;;;;18.41;66.87;101476.03;5926166;29;20530;-56
2021/08/15 01:05:16;;;;;;;12.77;5.05;;;;;;;18.18;68.18;101475.88;5925686;29;20352;-50
2021/08/15 01:08:38;;;;;;;13.80;5.65;;;;;;;18.08;68.13;101470.03;5938430;29;20245;-55
2021/08/15 01:12:00;;;;;;;15.02;6.15;;;;;;;17.83;68.66;101456.66;5933930;29;20540;-53
2021/08/15 01:15:22;;;;;;;10.85;5.65;;;;;;;17.92;68.80;101468.75;5933398;29;20556;-54
2021/08/15 01:18:44;;;;;;;13.13;6.18;;;;;;;18.14;67.97;101461.91;5932916;29;20260;-50
2021/08/15 01:22:05;;;;;;;9.23;4.07;;;;;;;18.20;68.18;101461.72;5919216;29;20234;-54
2021/08/15 01:25:26;;;;;;;11.00;5.55;;;;;;;18.19;67.72;101454.75;5933274;29;20271;-52
2021/08/15 01:28:50;;;;;;;9.43;5.05;;;;;;;18.11;67.36;101456.75;5937654;29;20698;-50
2021/08/15 01:32:12;;;;;;;10.38;6.18;;;;;;;18.37;66.39;101452.44;5927797;29;20625;-52
2021/08/15 01:35:32;;;;;;;9.88;5.00;;;;;;;18.47;66.14;101448.59;5929221;29;20237;-51
2021/08/15 01:38:54;;;;;;;10.18;4.18;;;;;;;18.70;65.12;101445.22;5937925;29;20238;-55
2021/08/15 01:42:14;;;;;;;11.40;5.32;;;;;;;18.48;65.25;101437.16;5930824;29;20711;-54
2021/08/15 01:45:37;;;;;;;5.93;4.03;;;;;;;18.52;64.84;101441.41;5933301;29;20285;-56
2021/08/15 01:48:58;;;;;;;10.50;4.63;;;;;;;18.90;63.22;101441.94;5931676;29;20237;-56
2021/08/15 01:52:19;;;;;;;6.95;4.28;;;;;;;18.27;65.75;101446.59;5930367;29;20233;-55
2021/08/15 01:55:41;;;;;;;9.18;4.95;;;;;;;18.28;65.41;101438.66;5926031;29;20250;-55
2021/08/15 01:59:02;;;;;;;10.55;5.57;;;;;;;18.47;64.92;101438.91;5927644;29;20229;-51
2021/08/15 02:02:28;;;;;;;9.65;4.60;;;;;;;18.44;64.74;101435.53;5933461;29;20242;-53
2021/08/15 02:05:49;;;;;;;9.00;4.80;;;;;;;18.59;64.43;101432.41;5934880;29;20323;-52
2021/08/15 02:09:10;;;;;;;12.77;5.63;;;;;;;17.99;66.11;101430.75;5922740;29;20249;-52
2021/08/15 02:12:31;;;;;;;9.00;4.68;;;;;;;17.98;66.00;101434.31;5929726;29;21219;-55
2021/08/15 02:15:52;;;;;;;10.45;4.80;;;;;;;18.24;65.64;101434.38;5935110;29;20253;-55
2021/08/15 02:19:14;;;;;;;8.07;4.60;;;;;;;18.25;65.47;101443.16;5925761;29;20582;-53
2021/08/15 02:22:35;;;;;;;6.85;3.70;;;;;;;17.90;65.65;101447.72;5931244;29;20237;-53
2021/08/15 02:25:56;;;;;;;10.40;4.97;;;;;;;17.93;65.72;101441.50;5925828;29;20722;-53
2021/08/15 02:29:17;;;;;;;8.17;5.17;;;;;;;17.93;67.08;101452.03;5922425;29;20239;-55
2021/08/15 02:32:39;;;;;;;14.33;5.93;;;;;;;17.97;67.31;101451.03;5928871;29;20241;-56
2021/08/15 02:36:01;;;;;;;10.18;5.70;;;;;;;17.98;67.44;101445.72;5938227;29;20253;-54
2021/08/15 02:39:22;;;;;;;8.77;5.30;;;;;;;18.23;66.83;101430.00;5938426;29;20343;-55
2021/08/15 02:42:46;;;;;;;11.93;5.40;;;;;;;17.73;68.66;101424.47;5930918;29;20324;-55
2021/08/15 02:46:07;;;;;;;7.90;4.07;;;;;;;18.15;67.43;101424.13;5924914;29;20237;-55
2021/08/15 02:49:28;;;;;;;9.77;5.60;;;;;;;18.60;65.72;101412.16;5935503;29;20619;-55
2021/08/15 02:52:51;;;;;;;9.18;4.38;;;;;;;18.57;64.90;101421.03;5927248;29;20366;-56
2021/08/15 02:56:12;;;;;;;9.07;4.55;;;;;;;18.82;64.10;101417.59;5933024;29;20249;-56
2021/08/15 02:59:39;;;;;;;8.55;5.10;;;;;;;18.90;63.78;101415.53;5911959;29;20268;-54
2021/08/15 03:03:00;;;;;;;12.68;4.40;;;;;;;18.76;63.80;101407.22;5932011;29;20291;-54
2021/08/15 03:06:21;;;;;;;10.07;4.97;;;;;;;18.95;63.17;101402.22;5935155;29;20874;-52
2021/08/15 03:09:44;;;;;;;9.15;4.13;;;;;;;18.89;63.33;101406.78;5929357;29;20245;-56
2021/08/15 03:13:06;;;;;;;11.02;4.68;;;;;;;19.04;62.83;101401.91;5928574;29;20256;-52
2021/08/15 03:16:27;;;;;;;12.77;5.05;;;;;;;18.69;63.41;101406.56;5927248;29;20240;-55
2021/08/15 03:19:48;;;;;;;10.60;4.18;;;;;;;18.98;62.34;101407.38;5934660;29;20233;-56
2021/08/15 03:23:09;;;;;;;15.60;5.53;;;;;;;19.02;62.50;101412.50;5926933;29;20233;-52
2021/08/15 03:26:32;;;;;;;10.48;5.03;;;;;;;19.08;62.26;101422.84;5915072;29;20325;-54
2021/08/15 03:29:53;;;;;;;7.43;4.03;;;;;;;18.82;62.20;101425.50;5931429;29;20241;-52
2021/08/15 03:33:13;;;;;;;8.55;4.50;;;;;;;18.50;63.49;101422.13;5927040;29;20340;-56
2021/08/15 03:36:34;;;;;;;8.68;4.90;;;;;;;18.56;63.59;101411.38;5934032;29;20278;-53
2021/08/15 03:39:55;;;;;;;10.85;6.60;;;;;;;18.63;64.26;101412.03;5925808;29;20608;-50
2021/08/15 03:43:17;;;;;;;7.70;5.75;;;;;;;18.78;64.46;101423.84;5920996;29;20244;-52
2021/08/15 03:46:40;;;;;;;9.73;5.53;;;;;;;18.63;66.14;101417.31;5933818;29;20229;-55
2021/08/15 03:50:02;;;;;;;10.93;6.10;;;;;;;18.38;67.19;101412.84;5936597;29;20242;-54
2021/08/15 03:53:22;;;;;;;6.78;5.57;;;;;;;18.39;67.71;101405.78;5926185;29;20242;-51
2021/08/15 03:56:43;;;;;;;11.95;6.53;;;;;;;18.41;67.56;101423.28;5933842;29;20241;-53
2021/08/15 04:00:07;;;;;;;6.35;4.93;;;;;;;18.08;69.77;101412.03;5932906;29;20241;-53
2021/08/15 04:03:28;;;;;;;9.35;4.75;;;;;;;18.32;68.77;101417.44;5934500;29;20238;-54
2021/08/15 04:06:49;;;;;;;9.35;5.55;;;;;;;18.50;68.39;101419.50;5928022;29;20286;-52
2021/08/15 04:10:10;;;;;;;11.10;6.38;;;;;;;18.29;69.44;101414.00;5922968;29;20234;-52
2021/08/15 04:13:31;;;;;;;7.72;5.50;;;;;;;18.20;69.62;101416.06;5932927;29;20241;-54
2021/08/15 04:16:53;;;;;;;10.80;6.65;;;;;;;18.13;70.49;101407.50;5941804;29;20241;-55
2021/08/15 04:20:14;;;;;;;10.35;6.32;;;;;;;18.18;70.24;101399.44;5935009;29;20241;-53
2021/08/15 04:23:35;;;;;;;8.65;6.53;;;;;;;18.20;70.46;101398.47;5934759;29;20249;-52
2021/08/15 04:26:56;;;;;;;8.10;6.70;;;;;;;18.41;69.73;101401.34;5932249;29;20617;-53
2021/08/15 04:30:17;;;;;;;7.85;5.95;;;;;;;17.54;73.32;101394.31;5935333;29;20261;-52
2021/08/15 04:33:39;;;;;;;7.97;5.55;;;;;;;17.89;72.07;101394.16;5931496;29;20276;-52
2021/08/15 04:37:00;;;;;;;8.88;6.53;;;;;;;17.85;72.25;101404.84;5926914;29;20253;-52
2021/08/15 04:40:21;;;;;;;9.80;6.03;;;;;;;17.95;71.95;101394.88;5925990;29;20241;-50
2021/08/15 04:43:42;;;;;;;7.70;5.47;;;;;;;18.03;71.97;101390.22;5940908;29;20270;-50
2021/08/15 04:47:03;;;;;;;9.80;6.10;;;;;;;17.47;73.80;101388.38;5924220;29;20242;-54
2021/08/15 04:50:25;;;;;;;9.70;5.27;;;;;;;17.66;73.18;101393.94;5934345;29;20241;-55
2021/08/15 04:53:46;;;;;;;5.85;5.32;;;;;;;17.09;76.39;101385.03;5933766;29;20264;-53
2021/08/15 04:57:07;;;;;;;6.27;5.53;;;;;;;17.24;75.44;101387.25;5929973;29;20659;-53
2021/08/15 05:00:28;;;;;;;6.78;5.93;;;;;;;16.59;78.10;101390.66;5932644;29;20323;-53
2021/08/15 05:03:50;;;;;;;9.20;6.27;;;;;;;16.67;78.34;101383.47;5946844;29;20244;-54
2021/08/15 05:07:12;;;;;;;6.27;5.20;;;;;;;16.40;79.18;101384.13;5928923;29;20254;-51
2021/08/15 05:10:33;;;;;;;7.20;5.47;;;;;;;16.79;78.45;101389.28;5938255;29;20846;-54
2021/08/15 05:13:54;;;;;;;7.97;7.20;;;;;;;16.97;77.07;101378.31;5939019;29;20237;-54
2021/08/15 05:17:15;;;;;;;7.13;6.43;;;;;;;17.17;76.98;101372.50;5934335;29;20245;-56
2021/08/15 05:20:37;;;;;;;8.43;6.80;;;;;;;16.63;79.05;101389.66;5939746;29;20364;-56
2021/08/15 05:23:59;;;;;;;7.90;6.27;;;;;;;17.10;77.21;101384.13;5932713;29;20648;-55
2021/08/15 05:27:20;;;;;;;9.97;6.83;;;;;;;16.73;78.18;101385.94;5939703;29;20236;-54
2021/08/15 05:30:41;;;;;;;12.37;8.00;;;;;;;16.48;79.59;101372.53;5935222;29;20316;-53
2021/08/15 05:34:02;;;;;;;8.40;7.50;;;;;;;16.70;77.55;101372.84;5932128;29;20359;-53
2021/08/15 05:37:23;;;;;;;12.07;7.33;;;;;;;16.86;78.09;101383.00;5938651;29;20236;-51
2021/08/15 05:40:45;;;;;;;11.60;8.50;;;;;;;16.56;77.87;101385.50;5933017;29;20253;-53
2021/08/15 05:44:06;;;;;;;9.17;7.60;;;;;;;16.67;78.32;101372.94;5938455;29;20241;-53
2021/08/15 05:47:27;;;;;;;8.03;6.40;;;;;;;16.99;77.30;101384.41;5931087;29;20245;-54
2021/08/15 05:50:48;;;;;;;10.30;7.83;;;;;;;17.15;76.45;101389.25;5933001;29;20237;-53
2021/08/15 05:54:09;;;;;;;8.40;7.63;;;;;;;17.32;75.96;101397.56;5923171;29;20676;-53
2021/08/15 05:57:31;;;;;;;9.00;7.50;;;;;;;17.09;76.47;101382.38;5929384;29;20241;-52
2021/08/15 06:00:52;;;;;;;8.93;7.50;;;;;;;17.48;75.20;101385.66;5926243;29;20230;-55
2021/08/15 06:04:12;;;;;;;10.20;7.17;;;;;;;17.78;74.41;101388.31;5928791;29;20230;-56
2021/08/15 06:07:33;;;;;;;8.13;7.03;;;;;;;18.07;72.42;101389.25;5931951;29;20241;-54
2021/08/15 06:10:54;;;;;;;7.53;5.57;;;;;;;18.13;72.41;101385.56;5925567;29;20248;-55
2021/08/15 06:14:17;;;;;;;9.47;6.63;;;;;;;18.30;71.05;101384.09;5932069;29;20249;-55
2021/08/15 06:17:38;;;;;;;6.55;5.93;;;;;;;18.22;70.92;101379.97;5929136;29;20507;-54
2021/08/15 06:20:59;;;;;;;8.98;6.55;;;;;;;18.17;70.71;101380.13;5919865;29;20241;-56
2021/08/15 06:24:20;;;;;;;8.63;6.32;;;;;;;18.35;69.32;101378.66;5923870;29;20237;-56
2021/08/15 06:27:43;;;;;;;7.88;5.95;;;;;;;18.52;70.00;101379.91;5926460;29;20616;-54
2021/08/15 06:31:05;;;;;;;7.32;4.60;;;;;;;18.60;68.68;101381.34;5933141;29;20640;-54
2021/08/15 06:34:27;;;;;;;5.80;4.28;;;;;;;18.60;68.33;101391.91;5914570;29;20242;-57
2021/08/15 06:37:50;;;;;;;6.53;5.15;;;;;;;18.25;69.91;101395.69;5924733;29;20616;-58
2021/08/15 06:41:11;;;;;;;5.40;3.97;;;;;;;18.56;67.82;101392.06;5924443;29;20244;-58
2021/08/15 06:44:32;;;;;;;7.68;4.70;;;;;;;18.43;68.62;101381.06;5921472;29;20241;-58
2021/08/15 06:47:54;;;;;;;5.13;4.07;;;;;;;18.40;67.61;101383.81;5920028;29;20245;-53
2021/08/15 06:51:15;;;;;;;6.70;3.85;;;;;;;17.64;70.47;101388.75;5928441;29;20241;-55
2021/08/15 06:54:36;;;;;;;4.82;3.20;;;;;;;18.32;68.49;101388.44;5925133;29;20265;-56
2021/08/15 06:57:58;;;;;;;6.00;3.85;;;;;;;18.30;68.25;101386.75;5924067;29;20340;-58
2021/08/15 07:01:19;;;;;;;5.75;3.30;;;;;;;17.72;69.53;101385.88;5924437;29;20242;-54
2021/08/15 07:04:41;;;;;;;5.97;4.13;;;;;;;17.82;69.56;101384.69;5928146;29;20245;-58
2021/08/15 07:08:02;;;;;;;4.20;3.53;;;;;;;18.54;67.75;101381.56;5923903;29;20242;-57
2021/08/15 07:11:23;;;;;;;4.95;4.18;;;;;;;18.70;67.62;101376.63;5920054;29;20245;-56
2021/08/15 07:14:44;;;;;;;6.35;4.63;;;;;;;18.79;66.74;101370.19;5908567;29;20274;-56
2021/08/15 07:18:06;;;;;;;6.10;4.70;;;;;;;19.04;65.19;101375.50;5920584;29;20566;-57
2021/08/15 07:21:28;;;;;;;6.18;4.05;;;;;;;19.02;65.56;101383.47;5915588;29;20246;-57
2021/08/15 07:24:49;;;;;;;6.00;5.00;;;;;;;18.78;66.32;101379.00;5918485;29;20265;-56
2021/08/15 07:28:10;;;;;;;7.30;5.50;;;;;;;18.93;66.41;101378.50;5918867;29;20236;-57
2021/08/15 07:31:31;;;;;;;7.15;4.75;;;;;;;19.00;66.17;101369.47;5915103;29;20669;-58
2021/08/15 07:34:52;;;;;;;7.47;5.63;;;;;;;18.76;67.76;101375.56;5916436;29;20245;-58
2021/08/15 07:38:14;;;;;;;8.10;5.93;;;;;;;18.94;68.04;101374.97;5922165;29;20264;-57
2021/08/15 07:41:35;;;;;;;9.75;5.25;;;;;;;19.16;66.81;101380.34;5918227;29;20304;-57
2021/08/15 07:44:56;;;;;;;6.30;4.80;;;;;;;19.31;66.62;101383.31;5922536;29;20628;-57
2021/08/15 07:48:17;;;;;;;9.27;5.63;;;;;;;19.45;66.22;101376.63;5914240;29;20517;-58
2021/08/15 07:51:37;;;;;;;6.35;5.75;;;;;;;19.72;65.08;101379.19;5908284;29;20253;-58
2021/08/15 07:55:00;;;;;;;9.40;5.43;;;;;;;19.42;66.35;101384.66;5916834;29;20261;-54
2021/08/15 07:58:22;;;;;;;6.22;5.63;;;;;;;19.15;66.71;101377.75;5911842;29;20276;-54
2021/08/15 08:01:43;;;;;;;8.15;6.30;;;;;;;19.20;66.87;101378.44;5905642;29;20241;-55
2021/08/15 08:05:05;;;;;;;5.53;4.85;;;;;;;19.08;67.35;101377.13;5909310;29;20550;-53
2021/08/15 08:08:26;;;;;;;8.82;6.38;;;;;;;19.55;66.52;101378.94;5912051;29;20254;-52
2021/08/15 08:11:49;;;;;;;91.88;82.93;;;;;;;19.39;67.18;101382.13;5911143;29;20241;-55
2021/08/15 08:15:10;;;;;;;9.77;8.55;;;;;;;19.29;66.90;101380.75;5907161;29;20241;-55
2021/08/15 08:18:31;;;;;;;446.13;349.40;;;;;;;19.21;67.66;101377.50;5913377;29;21477;-50
2021/08/15 08:21:52;;;;;;;624.22;558.70;;;;;;;19.91;66.10;101371.41;5905844;29;20379;-56
2021/08/15 08:25:13;;;;;;;179.30;162.68;;;;;;;20.33;64.44;101370.56;5907963;29;20245;-53
2021/08/15 08:28:36;;;;;;;36.00;32.22;;;;;;;20.52;62.54;101381.25;5899979;29;20245;-55
2021/08/15 08:31:57;;;;;;;17.20;15.52;;;;;;;20.42;63.53;101377.28;5908947;29;20237;-51
2021/08/15 08:35:17;;;;;;;7.03;6.15;;;;;;;20.44;63.08;101375.44;5907478;29;20233;-52
2021/08/15 08:38:38;;;;;;;9.15;5.93;;;;;;;20.30;63.58;101373.38;5901277;29;20565;-53
2021/08/15 08:42:01;;;;;;;7.05;5.70;;;;;;;20.38;63.22;101370.41;5910470;29;20245;-56
2021/08/15 08:45:25;;;;;;;13.18;5.82;;;;;;;20.45;63.27;101372.75;5917332;29;20241;-54
2021/08/15 08:48:47;;;;;;;7.25;4.95;;;;;;;21.01;61.16;101368.63;5918957;29;20241;-56
2021/08/15 08:52:08;;;;;;;7.90;3.97;;;;;;;21.19;60.00;101360.75;5912108;29;20265;-53
2021/08/15 08:55:29;;;;;;;7.28;5.72;;;;;;;21.16;59.64;101351.19;5921024;29;20258;-55
2021/08/15 08:58:50;;;;;;;7.38;6.68;;;;;;;20.78;61.13;101350.22;5915920;29;20249;-55
2021/08/15 09:02:12;;;;;;;13.63;8.57;;;;;;;20.34;61.51;101345.88;5922809;29;20237;-54
2021/08/15 09:05:35;;;;;;;10.18;7.05;;;;;;;20.11;62.73;101349.44;5925775;29;20317;-52
2021/08/15 09:09:08;;;;;;;8.98;8.00;;;;;;;19.73;63.96;101340.41;5927580;29;20276;-56
2021/08/15 09:12:35;;;;;;;9.98;8.57;;;;;;;19.75;64.82;101336.75;5924332;29;20237;-55
2021/08/15 09:15:58;;;;;;;14.60;10.63;;;;;;;20.24;63.71;101334.81;5919845;29;20276;-53
2021/08/15 09:19:35;;;;;;;10.85;9.20;;;;;;;19.44;65.70;101343.22;5925858;29;20237;-53
2021/08/15 09:22:56;;;;;;;13.07;10.98;;;;;;;19.29;67.09;101333.22;5924627;29;20246;-54
2021/08/15 09:26:20;;;;;;;14.57;12.10;;;;;;;19.32;66.96;101335.75;5931319;29;20237;-55
2021/08/15 09:29:40;;;;;;;16.05;13.23;;;;;;;18.67;69.46;101332.75;5926403;29;20536;-53
2021/08/15 09:33:03;;;;;;;14.98;13.35;;;;;;;19.00;68.27;101329.88;5930750;29;20237;-56
2021/08/15 09:36:32;;;;;;;15.38;13.82;;;;;;;18.37;70.66;101323.25;5942920;29;20264;-56
2021/08/15 09:39:53;;;;;;;15.75;12.30;;;;;;;18.87;69.52;101320.66;5923758;29;20232;-53
2021/08/15 09:43:20;;;;;;;14.82;13.23;;;;;;;19.39;67.79;101316.13;5925988;29;20248;-54
2021/08/15 09:46:59;;;;;;;13.25;11.82;;;;;;;20.32;64.43;101315.13;5925061;29;20237;-53
2021/08/15 09:50:23;;;;;;;18.02;15.40;;;;;;;20.70;62.97;101320.59;5925716;29;20229;-54
2021/08/15 09:53:58;;;;;;;14.80;13.23;;;;;;;20.21;63.67;101318.22;5930414;29;20253;-56
2021/08/15 09:57:30;;;;;;;18.85;12.43;;;;;;;19.63;66.10;101321.38;5926019;29;20256;-55
2021/08/15 10:00:52;;;;;;;24.27;15.95;;;;;;;19.28;66.53;101313.00;5927705;29;20241;-53
2021/08/15 10:04:14;;;;;;;17.50;15.73;;;;;;;19.25;66.96;101313.13;5925063;29;20331;-51
2021/08/15 10:07:36;;;;;;;22.40;18.02;;;;;;;18.91;67.48;101301.16;5929183;29;20337;-54
2021/08/15 10:10:58;;;;;;;23.52;18.55;;;;;;;19.18;67.14;101299.28;5922641;29;20241;-53
2021/08/15 10:14:20;;;;;;;21.23;16.20;;;;;;;19.76;65.04;101300.66;5924337;29;20636;-53
2021/08/15 10:17:44;;;;;;;22.55;17.35;;;;;;;20.18;63.84;101302.44;5925640;29;20257;-57
2021/08/15 10:21:11;;;;;;;28.20;21.80;;;;;;;19.16;67.16;101295.00;5923247;29;20230;-52
2021/08/15 10:24:44;;;;;;;21.42;18.90;;;;;;;19.97;65.12;101288.38;5925039;29;20265;-51
2021/08/15 10:28:06;;;;;;;23.70;18.65;;;;;;;20.50;62.49;101287.03;5920762;29;20237;-55
2021/08/15 10:32:22;;;;;;;28.27;20.70;;;;;;;21.17;61.13;101277.88;5923714;29;20246;-53
2021/08/15 10:35:43;;;;;;;20.85;18.13;;;;;;;20.97;61.22;101282.28;5883510;29;20605;-53
2021/08/15 10:39:36;;;;;;;21.45;16.88;;;;;;;21.38;60.48;101281.31;5925632;29;20253;-51
2021/08/15 10:42:56;;;;;;;20.75;16.77;;;;;;;21.33;60.16;101281.53;5911604;29;20249;-54
2021/08/15 10:46:22;;;;;;;18.98;14.82;;;;;;;21.08;61.66;101273.03;5920235;29;20632;-53
2021/08/15 10:49:58;;;;;;;18.67;15.00;;;;;;;21.50;60.16;101271.97;5927767;29;20517;-54
2021/08/15 10:53:37;;;;;;;23.00;16.55;;;;;;;21.91;59.14;101266.47;5922799;29;20241;-55
2021/08/15 10:57:00;;;;;;;13.90;11.10;;;;;;;22.43;57.56;101261.22;5898597;29;20321;-53
2021/08/15 11:00:44;;;;;;;15.43;10.38;;;;;;;23.14;55.60;101262.78;5929805;29;20233;-52
2021/08/15 11:04:06;;;;;;;17.52;14.45;;;;;;;23.85;53.89;101261.50;5918693;29;20241;-55
2021/08/15 11:07:35;;;;;;;14.32;10.43;;;;;;;24.58;51.57;101250.09;5930574;29;20339;-55
2021/08/15 11:11:07;;;;;;;15.35;11.27;;;;;;;24.93;50.81;101245.25;5923821;29;20241;-53
2021/08/15 11:14:28;;;;;;;19.52;13.15;;;;;;;24.65;50.13;101241.66;5921827;29;20348;-51
2021/08/15 11:18:11;;;;;;;15.13;11.52;;;;;;;25.22;49.61;101232.81;5922432;29;20340;-55
2021/08/15 11:22:09;;;;;;;26.02;11.68;;;;;;;25.84;47.57;101220.75;5923024;29;20237;-56
2021/08/15 11:25:30;;;;;;;15.50;12.15;;;;;;;25.46;47.82;101224.16;5925548;29;20325;-53
2021/08/15 11:28:51;;;;;;;17.48;11.57;;;;;;;25.46;49.21;101216.19;5920866;29;20533;-52
2021/08/15 11:32:14;;;;;;;13.20;10.70;;;;;;;25.31;48.78;101205.53;5931829;29;20331;-56
2021/08/15 11:35:43;;;;;;;17.10;11.50;;;;;;;24.08;52.21;101198.94;5930814;29;20237;-57
2021/08/15 11:39:06;;;;;;;18.48;9.07;;;;;;;25.63;48.37;101194.59;5930950;29;20241;-56
2021/08/15 11:42:28;;;;;;;19.17;10.15;;;;;;;25.66;48.26;101194.38;5921718;29;20251;-56
2021/08/15 11:45:54;;;;;;;12.80;7.40;;;;;;;26.11;47.96;101184.25;5923652;29;20237;-56
2021/08/15 11:49:33;;;;;;;11.45;10.23;;;;;;;26.39;46.35;101173.47;5930426;29;20237;-55
2021/08/15 11:52:53;;;;;;;13.95;8.90;;;;;;;26.33;47.26;101178.28;5921232;29;20320;-56
2021/08/15 11:56:18;;;;;;;11.13;8.93;;;;;;;27.19;44.88;101181.97;5920891;29;20241;-50
2021/08/15 11:59:41;;;;;;;15.10;9.15;;;;;;;27.64;44.57;101176.00;5915731;29;20285;-58
2021/08/15 12:03:05;;;;;;;15.10;8.82;;;;;;;27.50;43.43;101163.69;5917844;29;20638;-56
2021/08/15 12:06:26;;;;;;;15.57;9.40;;;;;;;26.89;44.37;101159.19;5918382;29;20331;-57
2021/08/15 12:09:47;;;;;;;14.23;9.30;;;;;;;28.37;41.41;101156.13;5924202;29;20258;-56
2021/08/15 12:13:12;;;;;;;12.52;9.80;;;;;;;29.91;38.36;101159.66;5916505;29;20269;-54
2021/08/15 12:16:33;;;;;;;13.90;8.65;;;;;;;31.50;35.37;101154.56;5907104;29;20675;-56
2021/08/15 12:19:54;;;;;;;10.35;8.45;;;;;;;31.97;33.73;101151.97;5918644;29;20242;-57
2021/08/15 12:23:15;;;;;;;12.15;9.95;;;;;;;29.76;37.61;101153.78;5921123;29;20237;-57
2021/08/15 12:26:38;;;;;;;13.75;11.02;;;;;;;30.94;35.08;101148.00;5920440;29;20237;-55
2021/08/15 12:30:01;;;;;;;12.77;8.20;;;;;;;33.40;31.82;101137.19;5920444;29;20242;-54
2021/08/15 12:33:22;;;;;;;11.30;8.18;;;;;;;34.77;29.51;101128.44;5937537;29;20233;-56
2021/08/15 12:36:49;;;;;;;10.48;6.38;;;;;;;34.77;29.51;101128.44;5935950;29;20241;-57
2021/08/15 12:40:12;;;;;;;11.57;7.97;;;;;;;36.58;27.76;101129.16;5924396;29;20253;-57
2021/08/15 12:43:33;;;;;;;13.48;7.80;;;;;;;35.87;27.09;101123.63;5928523;29;20242;-57
2021/08/15 12:47:05;;;;;;;9.68;8.43;;;;;;;34.22;30.40;101110.81;5924416;29;20242;-56
2021/08/15 12:50:26;;;;;;;13.63;10.48;;;;;;;31.41;33.64;101117.75;5922690;29;20249;-56
2021/08/15 12:53:47;;;;;;;9.70;7.35;;;;;;;34.06;30.40;101111.56;5925273;29;20316;-57
2021/08/15 12:57:07;;;;;;;11.30;6.88;;;;;;;36.29;27.08;101093.72;5921379;29;20316;-57
2021/08/15 13:00:32;;;;;;;11.55;7.75;;;;;;;35.95;26.77;101089.41;5925018;29;20895;-58
2021/08/15 13:03:55;;;;;;;11.73;7.97;;;;;;;35.70;27.52;101089.47;5913453;29;20241;-57
2021/08/15 13:07:16;;;;;;;8.32;6.55;;;;;;;32.09;32.92;101087.19;5929226;29;20501;-56
2021/08/15 13:10:38;;;;;;;11.27;7.97;;;;;;;33.22;30.87;101087.81;5926368;29;20329;-57
2021/08/15 13:13:59;;;;;;;12.95;9.43;;;;;;;28.21;39.57;101100.25;5919936;29;20241;-57
2021/08/15 13:17:20;;;;;;;13.40;8.50;;;;;;;32.05;33.76;101070.47;5931514;29;20242;-57
2021/08/15 13:20:42;;;;;;;12.15;11.00;;;;;;;36.73;26.54;101060.63;5929871;29;20258;-58
2021/08/15 13:24:03;;;;;;;7.65;5.93;;;;;;;36.61;25.98;101069.13;5932273;29;20338;-57
2021/08/15 13:27:25;;;;;;;8.48;7.30;;;;;;;29.99;35.89;101063.22;5936925;29;20249;-53
2021/08/15 13:30:46;;;;;;;13.10;8.70;;;;;;;29.40;38.16;101061.97;5931521;29;20249;-56
2021/08/15 13:34:07;;;;;;;9.25;6.88;;;;;;;32.10;33.00;101062.78;5935072;29;20304;-57
2021/08/15 13:37:29;;;;;;;11.82;6.45;;;;;;;33.29;31.35;101043.03;5931178;29;20245;-56
2021/08/15 13:40:50;;;;;;;6.43;5.55;;;;;;;35.08;28.60;101041.25;5926681;29;20238;-57
2021/08/15 13:44:12;;;;;;;7.88;6.20;;;;;;;29.89;36.06;101043.50;5929936;29;20560;-55
2021/08/15 13:47:33;;;;;;;7.70;5.97;;;;;;;33.35;29.71;101026.19;5934673;29;20371;-56
2021/08/15 13:50:53;;;;;;;8.32;6.57;;;;;;;33.63;30.02;101017.97;5929843;29;20730;-57
2021/08/15 13:54:16;;;;;;;9.70;8.80;;;;;;;35.33;27.78;101020.44;5925460;29;21459;-57
2021/08/15 13:57:37;;;;;;;7.40;5.40;;;;;;;35.56;27.69;101011.63;5930232;29;20249;-57
2021/08/15 14:00:58;;;;;;;8.40;6.55;;;;;;;34.52;28.37;101000.41;5931754;29;20241;-56
2021/08/15 14:04:19;;;;;;;12.65;6.82;;;;;;;30.75;33.70;100995.56;5928807;29;20245;-54
2021/08/15 14:07:40;;;;;;;11.50;5.35;;;;;;;32.66;31.96;100993.53;5926141;29;20258;-56
2021/08/15 14:11:02;;;;;;;9.02;6.00;;;;;;;31.18;34.61;101001.53;5926134;29;20655;-58
2021/08/15 14:14:23;;;;;;;7.40;6.05;;;;;;;31.28;33.49;100982.69;5926656;29;20265;-57
2021/08/15 14:17:45;;;;;;;10.18;6.47;;;;;;;29.17;37.28;100980.81;5930885;29;20252;-56
2021/08/15 14:21:05;;;;;;;8.68;5.63;;;;;;;30.25;36.20;100971.44;5929629;29;20246;-55
2021/08/15 14:24:26;;;;;;;6.22;5.13;;;;;;;26.43;43.54;100969.38;5932637;29;20306;-52
2021/08/15 14:27:49;;;;;;;7.90;6.97;;;;;;;26.67;42.51;100972.06;5930423;29;20890;-55
2021/08/15 14:31:10;;;;;;;6.38;4.93;;;;;;;27.89;40.71;100966.31;5925272;29;20574;-58
2021/08/15 14:34:31;;;;;;;6.93;5.35;;;;;;;26.95;42.38;100965.50;5925437;29;20233;-57
2021/08/15 14:37:51;;;;;;;6.82;6.20;;;;;;;26.58;43.65;100952.22;5925919;29;20245;-54
2021/08/15 14:41:12;;;;;;;6.55;5.95;;;;;;;27.11;42.65;100946.47;5925896;29;20245;-52
2021/08/15 14:44:35;;;;;;;7.60;4.95;;;;;;;27.04;41.76;100942.56;5923446;29;20241;-50
2021/08/15 14:47:55;;;;;;;6.65;5.95;;;;;;;27.53;41.80;100937.94;5929976;29;20257;-56
2021/08/15 14:51:16;;;;;;;7.03;6.28;;;;;;;27.62;41.47;100930.03;5923983;29;20249;-52
2021/08/15 14:54:37;;;;;;;6.22;5.70;;;;;;;28.32;40.41;100919.13;5929616;29;20241;-51
2021/08/15 14:57:58;;;;;;;6.10;4.35;;;;;;;26.52;41.75;100915.28;5931184;29;20245;-52
2021/08/15 15:01:20;;;;;;;6.57;4.07;;;;;;;27.97;40.78;100915.69;5918843;29;20245;-57
2021/08/15 15:04:41;;;;;;;7.88;4.10;;;;;;;27.85;39.98;100905.94;5929483;29;20630;-53
2021/08/15 15:08:03;;;;;;;7.20;5.10;;;;;;;27.62;40.49;100905.97;5922360;29;20324;-55
2021/08/15 15:11:24;;;;;;;5.70;3.90;;;;;;;27.17;40.77;100905.91;5926035;29;20241;-57
2021/08/15 15:14:45;;;;;;;5.03;4.63;;;;;;;27.29;39.96;100901.47;5920395;29;20767;-54
2021/08/15 15:18:07;;;;;;;5.15;4.13;;;;;;;27.26;41.20;100889.19;5929252;29;20616;-56
2021/08/15 15:21:28;;;;;;;7.07;5.13;;;;;;;26.15;43.07;100885.97;5928562;29;20684;-57
2021/08/15 15:24:49;;;;;;;6.20;5.60;;;;;;;26.53;42.31;100882.28;5927135;29;20980;-56
2021/08/15 15:28:10;;;;;;;5.55;4.60;;;;;;;26.95;41.40;100884.47;5909057;29;20332;-56
2021/08/15 15:31:31;;;;;;;6.05;5.25;;;;;;;25.93;43.21;100887.53;5926276;29;20237;-54
2021/08/15 15:34:54;;;;;;;6.20;4.85;;;;;;;26.13;42.91;100879.91;5928148;29;20682;-53